sensor_id;sensor_type;location;lat;lon;timestamp;temperature;humidity
23591;DHT22;11973;52.098;7.582;2023-12-07T00:01:53;1.00;99.90
23591;DHT22;11973;52.098;7.582;2023-12-07T00:04:19;1.00;99.90
23591;DHT22;11973;52.098;7.582;2023-12-07T00:06:44;1.00;99.90
23591;DHT22;11973;52.098;7.582;2023-12-07T00:09:10;1.00;99.90
23591;DHT22;11973;52.098;7.582;2023-12-07T00:11:36;1.00;99.90
23591;DHT22;11973;52.098;7.582;2023-12-07T00:14:01;1.00;99.90
23591;DHT22;11973;52.098;7.582;2023-12-07T00:16:27;1.00;99.90
23591;DHT22;11973;52.098;7.582;2023-12-07T00:18:53;1.00;99.90
23591;DHT22;11973;52.098;7.582;2023-12-07T00:21:19;1.00;99.90
23591;DHT22;11973;52.098;7.582;2023-12-07T00:23:45;1.00;99.90
23591;DHT22;11973;52.098;7.582;2023-12-07T00:26:11;0.90;99.90
23591;DHT22;11973;52.098;7.582;2023-12-07T00:28:37;0.90;99.90
23591;DHT22;11973;52.098;7.582;2023-12-07T05:18:10;0.20;99.90
23591;DHT22;11973;52.098;7.582;2023-12-07T05:20:36;0.30;99.90
23591;DHT22;11973;52.098;7.582;2023-12-07T05:23:05;0.30;99.90
23591;DHT22;11973;52.098;7.582;2023-12-07T05:25:31;0.40;99.90
23591;DHT22;11973;52.098;7.582;2023-12-07T05:27:58;0.30;99.90
23591;DHT22;11973;52.098;7.582;2023-12-07T05:30:23;0.40;99.90
23591;DHT22;11973;52.098;7.582;2023-12-07T05:32:49;0.40;99.90
23591;DHT22;11973;52.098;7.582;2023-12-07T05:35:16;0.40;99.90
23591;DHT22;11973;52.098;7.582;2023-12-07T05:37:42;0.40;99.90
23591;DHT22;11973;52.098;7.582;2023-12-07T05:40:08;0.40;99.90
23591;DHT22;11973;52.098;7.582;2023-12-07T05:42:35;0.50;99.90
23591;DHT22;11973;52.098;7.582;2023-12-07T05:45:00;0.50;99.90
23591;DHT22;11973;52.098;7.582;2023-12-07T05:47:26;0.50;99.90
23591;DHT22;11973;52.098;7.582;2023-12-07T05:49:52;0.50;99.90
23591;DHT22;11973;52.098;7.582;2023-12-07T05:52:18;0.50;99.90
23591;DHT22;11973;52.098;7.582;2023-12-07T05:54:44;0.50;99.90
23591;DHT22;11973;52.098;7.582;2023-12-07T05:57:12;0.50;99.90
23591;DHT22;11973;52.098;7.582;2023-12-07T05:59:39;0.50;99.90
23591;DHT22;11973;52.098;7.582;2023-12-07T06:02:05;0.60;99.90
23591;DHT22;11973;52.098;7.582;2023-12-07T06:04:31;0.50;99.90
23591;DHT22;11973;52.098;7.582;2023-12-07T06:06:56;0.50;99.90
23591;DHT22;11973;52.098;7.582;2023-12-07T06:09:22;0.50;99.90
23591;DHT22;11973;52.098;7.582;2023-12-07T06:11:48;0.50;99.90
23591;DHT22;11973;52.098;7.582;2023-12-07T06:14:14;0.50;99.90
23591;DHT22;11973;52.098;7.582;2023-12-07T06:16:40;0.50;99.90
23591;DHT22;11973;52.098;7.582;2023-12-07T06:19:05;0.50;99.90
23591;DHT22;11973;52.098;7.582;2023-12-07T06:21:31;0.50;99.90
23591;DHT22;11973;52.098;7.582;2023-12-07T06:23:58;0.50;99.90
23591;DHT22;11973;52.098;7.582;2023-12-07T06:26:25;0.50;99.90
23591;DHT22;11973;52.098;7.582;2023-12-07T06:28:50;0.50;99.90
23591;DHT22;11973;52.098;7.582;2023-12-07T06:31:16;0.50;99.90
23591;DHT22;11973;52.098;7.582;2023-12-07T06:33:47;0.50;99.90
23591;DHT22;11973;52.098;7.582;2023-12-07T06:36:21;0.60;99.90
23591;DHT22;11973;52.098;7.582;2023-12-07T06:38:48;0.50;99.90
23591;DHT22;11973;52.098;7.582;2023-12-07T06:41:14;0.50;99.90
23591;DHT22;11973;52.098;7.582;2023-12-07T06:43:41;0.50;99.90
23591;DHT22;11973;52.098;7.582;2023-12-07T06:46:07;0.50;99.90
23591;DHT22;11973;52.098;7.582;2023-12-07T06:48:33;0.60;99.90
23591;DHT22;11973;52.098;7.582;2023-12-07T06:50:59;0.50;99.90
23591;DHT22;11973;52.098;7.582;2023-12-07T06:53:24;0.50;99.90
23591;DHT22;11973;52.098;7.582;2023-12-07T06:55:50;0.60;99.90
23591;DHT22;11973;52.098;7.582;2023-12-07T06:58:16;0.60;99.90
23591;DHT22;11973;52.098;7.582;2023-12-07T07:00:42;0.60;99.90
23591;DHT22;11973;52.098;7.582;2023-12-07T07:03:07;0.60;99.90
23591;DHT22;11973;52.098;7.582;2023-12-07T07:05:34;0.60;99.90
23591;DHT22;11973;52.098;7.582;2023-12-07T07:07:59;0.50;99.90
23591;DHT22;11973;52.098;7.582;2023-12-07T07:10:25;0.60;99.90
23591;DHT22;11973;52.098;7.582;2023-12-07T07:12:51;0.60;99.90
23591;DHT22;11973;52.098;7.582;2023-12-07T07:15:17;0.60;99.90
23591;DHT22;11973;52.098;7.582;2023-12-07T07:17:42;0.60;99.90
23591;DHT22;11973;52.098;7.582;2023-12-07T07:20:08;0.60;99.90
23591;DHT22;11973;52.098;7.582;2023-12-07T07:22:34;0.60;99.90
23591;DHT22;11973;52.098;7.582;2023-12-07T07:25:00;0.60;99.90
23591;DHT22;11973;52.098;7.582;2023-12-07T07:27:26;0.60;99.90
23591;DHT22;11973;52.098;7.582;2023-12-07T07:29:52;0.60;99.90
23591;DHT22;11973;52.098;7.582;2023-12-07T07:32:17;0.60;99.90
23591;DHT22;11973;52.098;7.582;2023-12-07T07:34:43;0.60;99.90
23591;DHT22;11973;52.098;7.582;2023-12-07T07:37:09;0.60;99.90
23591;DHT22;11973;52.098;7.582;2023-12-07T07:39:35;0.60;99.90
23591;DHT22;11973;52.098;7.582;2023-12-07T07:42:00;0.70;99.90
23591;DHT22;11973;52.098;7.582;2023-12-07T07:44:26;0.70;99.90
23591;DHT22;11973;52.098;7.582;2023-12-07T07:46:52;0.60;99.90
23591;DHT22;11973;52.098;7.582;2023-12-07T07:49:18;0.60;99.90
23591;DHT22;11973;52.098;7.582;2023-12-07T07:51:43;0.70;99.90
23591;DHT22;11973;52.098;7.582;2023-12-07T07:54:09;0.70;99.90
23591;DHT22;11973;52.098;7.582;2023-12-07T07:56:35;0.60;99.90
23591;DHT22;11973;52.098;7.582;2023-12-07T07:59:01;0.70;99.90
23591;DHT22;11973;52.098;7.582;2023-12-07T08:01:27;0.70;99.90
23591;DHT22;11973;52.098;7.582;2023-12-07T08:03:52;0.70;99.90
23591;DHT22;11973;52.098;7.582;2023-12-07T08:06:18;0.70;99.90
23591;DHT22;11973;52.098;7.582;2023-12-07T08:08:44;0.80;99.90
23591;DHT22;11973;52.098;7.582;2023-12-07T08:11:10;0.80;99.90
23591;DHT22;11973;52.098;7.582;2023-12-07T08:13:40;0.80;99.90
23591;DHT22;11973;52.098;7.582;2023-12-07T08:16:07;0.80;99.90
23591;DHT22;11973;52.098;7.582;2023-12-07T08:18:34;0.80;99.90
23591;DHT22;11973;52.098;7.582;2023-12-07T08:21:00;0.80;99.90
23591;DHT22;11973;52.098;7.582;2023-12-07T08:23:26;0.90;99.90
23591;DHT22;11973;52.098;7.582;2023-12-07T08:25:51;0.90;99.90
23591;DHT22;11973;52.098;7.582;2023-12-07T08:28:17;0.90;99.90
23591;DHT22;11973;52.098;7.582;2023-12-07T08:30:44;1.00;99.90
23591;DHT22;11973;52.098;7.582;2023-12-07T08:33:09;1.00;99.90
23591;DHT22;11973;52.098;7.582;2023-12-07T08:35:35;1.00;99.90
23591;DHT22;11973;52.098;7.582;2023-12-07T08:38:01;1.00;99.90
23591;DHT22;11973;52.098;7.582;2023-12-07T08:40:26;1.10;99.90
23591;DHT22;11973;52.098;7.582;2023-12-07T08:42:54;1.20;99.90
23591;DHT22;11973;52.098;7.582;2023-12-07T08:45:20;1.20;99.90
23591;DHT22;11973;52.098;7.582;2023-12-07T08:47:46;1.20;99.90
23591;DHT22;11973;52.098;7.582;2023-12-07T08:50:12;1.30;99.90
23591;DHT22;11973;52.098;7.582;2023-12-07T08:52:37;1.30;99.90
23591;DHT22;11973;52.098;7.582;2023-12-07T08:55:04;1.30;99.90
23591;DHT22;11973;52.098;7.582;2023-12-07T08:57:29;1.40;99.90
23591;DHT22;11973;52.098;7.582;2023-12-07T08:59:55;1.40;99.90
23591;DHT22;11973;52.098;7.582;2023-12-07T09:02:21;1.50;99.90
23591;DHT22;11973;52.098;7.582;2023-12-07T09:04:46;1.50;99.90
23591;DHT22;11973;52.098;7.582;2023-12-07T09:07:14;1.60;99.90
23591;DHT22;11973;52.098;7.582;2023-12-07T09:09:42;1.60;99.90
23591;DHT22;11973;52.098;7.582;2023-12-07T09:12:13;1.70;99.90
23591;DHT22;11973;52.098;7.582;2023-12-07T09:14:40;1.70;99.90
23591;DHT22;11973;52.098;7.582;2023-12-07T09:17:05;1.70;99.90
23591;DHT22;11973;52.098;7.582;2023-12-07T09:19:31;1.70;99.90
23591;DHT22;11973;52.098;7.582;2023-12-07T09:21:57;1.70;99.90
23591;DHT22;11973;52.098;7.582;2023-12-07T09:24:24;1.80;99.90
23591;DHT22;11973;52.098;7.582;2023-12-07T09:26:50;1.80;99.90
23591;DHT22;11973;52.098;7.582;2023-12-07T09:29:16;1.90;99.90
23591;DHT22;11973;52.098;7.582;2023-12-07T09:31:42;1.90;99.90
23591;DHT22;11973;52.098;7.582;2023-12-07T09:34:07;2.00;99.90
23591;DHT22;11973;52.098;7.582;2023-12-07T09:36:34;2.00;99.90
23591;DHT22;11973;52.098;7.582;2023-12-07T09:39:00;2.00;99.90
23591;DHT22;11973;52.098;7.582;2023-12-07T09:41:27;2.10;99.90
23591;DHT22;11973;52.098;7.582;2023-12-07T09:43:54;2.20;99.90
23591;DHT22;11973;52.098;7.582;2023-12-07T09:46:20;2.20;99.90
23591;DHT22;11973;52.098;7.582;2023-12-07T09:48:48;2.30;99.90
23591;DHT22;11973;52.098;7.582;2023-12-07T09:51:15;2.30;99.90
23591;DHT22;11973;52.098;7.582;2023-12-07T09:53:42;2.40;99.90
23591;DHT22;11973;52.098;7.582;2023-12-07T09:56:10;2.40;99.90
23591;DHT22;11973;52.098;7.582;2023-12-07T09:58:36;2.60;99.90
23591;DHT22;11973;52.098;7.582;2023-12-07T10:01:02;2.50;99.90
23591;DHT22;11973;52.098;7.582;2023-12-07T10:03:28;2.60;99.90
23591;DHT22;11973;52.098;7.582;2023-12-07T10:05:54;2.60;99.90
23591;DHT22;11973;52.098;7.582;2023-12-07T10:08:32;2.70;99.90
23591;DHT22;11973;52.098;7.582;2023-12-07T10:13:33;2.70;99.90
23591;DHT22;11973;52.098;7.582;2023-12-07T10:16:19;2.80;99.90
23591;DHT22;11973;52.098;7.582;2023-12-07T10:18:45;2.90;99.90
23591;DHT22;11973;52.098;7.582;2023-12-07T10:21:11;2.90;99.90
23591;DHT22;11973;52.098;7.582;2023-12-07T10:23:37;2.90;99.90
23591;DHT22;11973;52.098;7.582;2023-12-07T10:26:05;3.00;99.90
23591;DHT22;11973;52.098;7.582;2023-12-07T10:28:31;3.00;99.90
23591;DHT22;11973;52.098;7.582;2023-12-07T10:30:59;3.10;99.90
23591;DHT22;11973;52.098;7.582;2023-12-07T10:33:26;3.10;99.90
23591;DHT22;11973;52.098;7.582;2023-12-07T10:35:51;3.10;99.90
23591;DHT22;11973;52.098;7.582;2023-12-07T10:38:17;3.20;99.90
23591;DHT22;11973;52.098;7.582;2023-12-07T10:40:49;3.20;99.90
23591;DHT22;11973;52.098;7.582;2023-12-07T10:43:17;3.20;99.90
23591;DHT22;11973;52.098;7.582;2023-12-07T10:45:45;3.30;99.90
23591;DHT22;11973;52.098;7.582;2023-12-07T10:48:12;3.30;99.90
23591;DHT22;11973;52.098;7.582;2023-12-07T10:50:45;3.40;99.90
23591;DHT22;11973;52.098;7.582;2023-12-07T10:53:23;3.40;99.90
23591;DHT22;11973;52.098;7.582;2023-12-07T10:56:00;3.40;99.90
23591;DHT22;11973;52.098;7.582;2023-12-07T10:58:26;3.50;99.90
23591;DHT22;11973;52.098;7.582;2023-12-07T11:00:53;3.50;99.90
23591;DHT22;11973;52.098;7.582;2023-12-07T11:03:19;3.50;99.90
23591;DHT22;11973;52.098;7.582;2023-12-07T11:05:50;3.60;99.90
23591;DHT22;11973;52.098;7.582;2023-12-07T11:08:44;3.60;99.90
23591;DHT22;11973;52.098;7.582;2023-12-07T11:11:27;3.70;99.90
23591;DHT22;11973;52.098;7.582;2023-12-07T11:13:59;3.70;99.90
23591;DHT22;11973;52.098;7.582;2023-12-07T11:16:32;3.70;99.90
23591;DHT22;11973;52.098;7.582;2023-12-07T11:18:59;3.80;99.90
23591;DHT22;11973;52.098;7.582;2023-12-07T11:21:25;3.80;99.90
23591;DHT22;11973;52.098;7.582;2023-12-07T11:23:53;3.80;99.90
23591;DHT22;11973;52.098;7.582;2023-12-07T11:26:22;3.80;99.90
23591;DHT22;11973;52.098;7.582;2023-12-07T11:28:48;4.00;99.90
23591;DHT22;11973;52.098;7.582;2023-12-07T11:31:16;3.90;99.90
23591;DHT22;11973;52.098;7.582;2023-12-07T11:33:42;3.90;99.90
23591;DHT22;11973;52.098;7.582;2023-12-07T11:36:11;3.90;99.90
23591;DHT22;11973;52.098;7.582;2023-12-07T11:38:55;3.90;99.90
23591;DHT22;11973;52.098;7.582;2023-12-07T11:41:24;3.90;99.90
23591;DHT22;11973;52.098;7.582;2023-12-07T11:43:58;4.00;99.90
23591;DHT22;11973;52.098;7.582;2023-12-07T11:46:24;4.00;99.90
23591;DHT22;11973;52.098;7.582;2023-12-07T11:48:49;4.00;99.90
23591;DHT22;11973;52.098;7.582;2023-12-07T11:51:16;4.00;99.90
23591;DHT22;11973;52.098;7.582;2023-12-07T11:53:42;4.10;99.90
23591;DHT22;11973;52.098;7.582;2023-12-07T11:56:09;4.10;99.90
23591;DHT22;11973;52.098;7.582;2023-12-07T11:58:37;4.10;99.90
23591;DHT22;11973;52.098;7.582;2023-12-07T12:01:03;4.10;99.90
23591;DHT22;11973;52.098;7.582;2023-12-07T12:03:31;4.20;99.90
23591;DHT22;11973;52.098;7.582;2023-12-07T12:06:01;4.20;99.90
23591;DHT22;11973;52.098;7.582;2023-12-07T12:08:28;4.20;99.90
23591;DHT22;11973;52.098;7.582;2023-12-07T12:10:54;4.20;99.90
23591;DHT22;11973;52.098;7.582;2023-12-07T12:13:29;4.20;99.90
23591;DHT22;11973;52.098;7.582;2023-12-07T12:15:59;4.30;99.90
23591;DHT22;11973;52.098;7.582;2023-12-07T12:18:26;4.30;99.90
23591;DHT22;11973;52.098;7.582;2023-12-07T12:20:53;4.30;99.90
23591;DHT22;11973;52.098;7.582;2023-12-07T12:23:19;4.30;99.90
23591;DHT22;11973;52.098;7.582;2023-12-07T12:25:46;4.30;99.90
23591;DHT22;11973;52.098;7.582;2023-12-07T12:28:15;4.40;99.90
23591;DHT22;11973;52.098;7.582;2023-12-07T12:30:41;4.40;99.90
23591;DHT22;11973;52.098;7.582;2023-12-07T12:33:07;4.50;99.90
23591;DHT22;11973;52.098;7.582;2023-12-07T12:35:33;4.50;99.90
23591;DHT22;11973;52.098;7.582;2023-12-07T12:37:59;4.50;99.90
23591;DHT22;11973;52.098;7.582;2023-12-07T12:40:27;4.60;99.90
23591;DHT22;11973;52.098;7.582;2023-12-07T12:42:55;4.60;99.90
23591;DHT22;11973;52.098;7.582;2023-12-07T12:45:21;4.60;99.90
23591;DHT22;11973;52.098;7.582;2023-12-07T12:47:48;4.50;99.90
23591;DHT22;11973;52.098;7.582;2023-12-07T12:53:00;4.40;99.90
23591;DHT22;11973;52.098;7.582;2023-12-07T12:55:27;4.40;99.90
23591;DHT22;11973;52.098;7.582;2023-12-07T12:57:55;4.40;99.90
23591;DHT22;11973;52.098;7.582;2023-12-07T13:00:21;4.40;99.90
23591;DHT22;11973;52.098;7.582;2023-12-07T13:02:47;4.40;99.90
23591;DHT22;11973;52.098;7.582;2023-12-07T13:05:13;4.40;99.90
23591;DHT22;11973;52.098;7.582;2023-12-07T13:07:39;4.40;99.90
23591;DHT22;11973;52.098;7.582;2023-12-07T13:10:05;4.40;99.90
23591;DHT22;11973;52.098;7.582;2023-12-07T13:12:33;4.30;99.90
23591;DHT22;11973;52.098;7.582;2023-12-07T13:15:01;4.30;99.90
23591;DHT22;11973;52.098;7.582;2023-12-07T13:17:26;4.30;99.90
23591;DHT22;11973;52.098;7.582;2023-12-07T13:19:52;4.30;99.90
23591;DHT22;11973;52.098;7.582;2023-12-07T13:22:18;4.30;99.90
23591;DHT22;11973;52.098;7.582;2023-12-07T13:24:47;4.30;99.90
23591;DHT22;11973;52.098;7.582;2023-12-07T13:27:13;4.20;99.90
23591;DHT22;11973;52.098;7.582;2023-12-07T13:29:41;4.20;99.90
23591;DHT22;11973;52.098;7.582;2023-12-07T13:32:07;4.10;99.90
23591;DHT22;11973;52.098;7.582;2023-12-07T13:34:33;4.10;99.90
23591;DHT22;11973;52.098;7.582;2023-12-07T13:36:59;4.10;99.90
23591;DHT22;11973;52.098;7.582;2023-12-07T13:39:24;4.00;99.90
23591;DHT22;11973;52.098;7.582;2023-12-07T13:41:52;4.00;99.90
23591;DHT22;11973;52.098;7.582;2023-12-07T13:44:19;3.90;99.90
23591;DHT22;11973;52.098;7.582;2023-12-07T13:46:45;3.90;99.90
23591;DHT22;11973;52.098;7.582;2023-12-07T13:49:11;3.80;99.90
23591;DHT22;11973;52.098;7.582;2023-12-07T13:51:40;3.80;99.90
23591;DHT22;11973;52.098;7.582;2023-12-07T13:54:06;3.80;99.90
23591;DHT22;11973;52.098;7.582;2023-12-07T13:56:36;3.70;99.90
23591;DHT22;11973;52.098;7.582;2023-12-07T13:59:02;3.60;99.90
23591;DHT22;11973;52.098;7.582;2023-12-07T14:01:29;3.60;99.90
23591;DHT22;11973;52.098;7.582;2023-12-07T14:03:57;3.50;99.90
23591;DHT22;11973;52.098;7.582;2023-12-07T14:06:24;3.40;99.90
23591;DHT22;11973;52.098;7.582;2023-12-07T14:08:50;3.40;99.90
23591;DHT22;11973;52.098;7.582;2023-12-07T14:11:17;3.40;99.90
23591;DHT22;11973;52.098;7.582;2023-12-07T14:13:43;3.40;99.90
23591;DHT22;11973;52.098;7.582;2023-12-07T14:16:12;3.40;99.90
23591;DHT22;11973;52.098;7.582;2023-12-07T14:18:38;3.40;99.90
23591;DHT22;11973;52.098;7.582;2023-12-07T14:21:04;3.40;99.90
23591;DHT22;11973;52.098;7.582;2023-12-07T14:23:30;3.40;99.90
23591;DHT22;11973;52.098;7.582;2023-12-07T14:25:55;3.40;99.90
23591;DHT22;11973;52.098;7.582;2023-12-07T14:28:24;3.40;99.90
23591;DHT22;11973;52.098;7.582;2023-12-07T14:30:50;3.50;99.90
23591;DHT22;11973;52.098;7.582;2023-12-07T14:33:24;3.50;99.90
23591;DHT22;11973;52.098;7.582;2023-12-07T14:35:50;3.40;99.90
23591;DHT22;11973;52.098;7.582;2023-12-07T14:38:16;3.40;99.90
23591;DHT22;11973;52.098;7.582;2023-12-07T14:40:42;3.30;99.90
23591;DHT22;11973;52.098;7.582;2023-12-07T14:43:07;3.30;99.90
23591;DHT22;11973;52.098;7.582;2023-12-07T14:45:33;3.10;99.90
23591;DHT22;11973;52.098;7.582;2023-12-07T14:47:59;3.10;99.90
23591;DHT22;11973;52.098;7.582;2023-12-07T14:50:24;3.00;99.90
23591;DHT22;11973;52.098;7.582;2023-12-07T14:52:50;2.90;99.90
23591;DHT22;11973;52.098;7.582;2023-12-07T14:55:17;2.80;99.90
23591;DHT22;11973;52.098;7.582;2023-12-07T14:57:45;2.80;99.90
23591;DHT22;11973;52.098;7.582;2023-12-07T15:00:13;2.70;99.90
23591;DHT22;11973;52.098;7.582;2023-12-07T15:02:39;2.60;99.90
23591;DHT22;11973;52.098;7.582;2023-12-07T15:05:06;2.50;99.90
23591;DHT22;11973;52.098;7.582;2023-12-07T15:07:33;2.40;99.90
23591;DHT22;11973;52.098;7.582;2023-12-07T15:09:59;2.40;99.90
23591;DHT22;11973;52.098;7.582;2023-12-07T15:12:25;2.30;99.90
23591;DHT22;11973;52.098;7.582;2023-12-07T15:14:51;2.30;99.90
23591;DHT22;11973;52.098;7.582;2023-12-07T15:17:17;2.20;99.90
23591;DHT22;11973;52.098;7.582;2023-12-07T15:19:42;2.10;99.90
23591;DHT22;11973;52.098;7.582;2023-12-07T15:22:09;2.00;99.90
23591;DHT22;11973;52.098;7.582;2023-12-07T15:24:35;2.00;99.90
23591;DHT22;11973;52.098;7.582;2023-12-07T15:27:01;1.90;99.90
23591;DHT22;11973;52.098;7.582;2023-12-07T15:29:27;1.80;99.90
23591;DHT22;11973;52.098;7.582;2023-12-07T15:31:52;1.80;99.90
23591;DHT22;11973;52.098;7.582;2023-12-07T15:34:19;1.70;99.90
23591;DHT22;11973;52.098;7.582;2023-12-07T15:36:45;1.70;99.90
23591;DHT22;11973;52.098;7.582;2023-12-07T15:39:10;1.60;99.90
23591;DHT22;11973;52.098;7.582;2023-12-07T15:41:37;1.50;99.90
23591;DHT22;11973;52.098;7.582;2023-12-07T15:44:03;1.50;99.90
23591;DHT22;11973;52.098;7.582;2023-12-07T15:46:29;1.50;99.90
23591;DHT22;11973;52.098;7.582;2023-12-07T15:48:55;1.40;99.90
23591;DHT22;11973;52.098;7.582;2023-12-07T15:51:21;1.40;99.90
23591;DHT22;11973;52.098;7.582;2023-12-07T15:53:47;1.30;99.90
23591;DHT22;11973;52.098;7.582;2023-12-07T15:56:12;1.30;99.90
23591;DHT22;11973;52.098;7.582;2023-12-07T15:58:38;1.30;99.90
23591;DHT22;11973;52.098;7.582;2023-12-07T16:01:04;1.20;99.90
23591;DHT22;11973;52.098;7.582;2023-12-07T16:03:30;1.20;99.90
23591;DHT22;11973;52.098;7.582;2023-12-07T16:05:56;1.20;99.90
23591;DHT22;11973;52.098;7.582;2023-12-07T16:08:22;1.20;99.90
23591;DHT22;11973;52.098;7.582;2023-12-07T16:10:49;1.20;99.90
23591;DHT22;11973;52.098;7.582;2023-12-07T16:13:15;1.10;99.90
23591;DHT22;11973;52.098;7.582;2023-12-07T16:15:41;1.10;99.90
23591;DHT22;11973;52.098;7.582;2023-12-07T16:18:06;1.10;99.90
23591;DHT22;11973;52.098;7.582;2023-12-07T16:20:34;1.00;99.90
23591;DHT22;11973;52.098;7.582;2023-12-07T16:22:59;1.00;99.90
23591;DHT22;11973;52.098;7.582;2023-12-07T16:25:25;1.00;99.90
23591;DHT22;11973;52.098;7.582;2023-12-07T16:27:51;0.90;99.90
23591;DHT22;11973;52.098;7.582;2023-12-07T16:30:16;0.90;99.90
23591;DHT22;11973;52.098;7.582;2023-12-07T16:32:43;0.90;99.90
23591;DHT22;11973;52.098;7.582;2023-12-07T16:35:12;0.80;99.90
23591;DHT22;11973;52.098;7.582;2023-12-07T16:37:38;0.80;99.90
23591;DHT22;11973;52.098;7.582;2023-12-07T16:40:04;0.80;99.90
23591;DHT22;11973;52.098;7.582;2023-12-07T16:42:29;0.80;99.90
23591;DHT22;11973;52.098;7.582;2023-12-07T16:44:55;0.70;99.90
23591;DHT22;11973;52.098;7.582;2023-12-07T16:47:21;0.70;99.90
23591;DHT22;11973;52.098;7.582;2023-12-07T16:49:47;0.80;99.90
23591;DHT22;11973;52.098;7.582;2023-12-07T16:52:13;0.70;99.90
23591;DHT22;11973;52.098;7.582;2023-12-07T16:54:39;0.70;99.90
23591;DHT22;11973;52.098;7.582;2023-12-07T16:57:05;0.80;99.90
23591;DHT22;11973;52.098;7.582;2023-12-07T16:59:31;0.80;99.90
23591;DHT22;11973;52.098;7.582;2023-12-07T17:01:56;0.80;99.90
23591;DHT22;11973;52.098;7.582;2023-12-07T17:04:22;0.80;99.90
23591;DHT22;11973;52.098;7.582;2023-12-07T17:06:48;0.80;99.90
23591;DHT22;11973;52.098;7.582;2023-12-07T17:09:13;0.80;99.90
23591;DHT22;11973;52.098;7.582;2023-12-07T17:11:40;0.80;99.90
23591;DHT22;11973;52.098;7.582;2023-12-07T17:14:06;0.80;99.90
23591;DHT22;11973;52.098;7.582;2023-12-07T17:16:32;0.80;99.90
23591;DHT22;11973;52.098;7.582;2023-12-07T17:18:58;0.90;99.90
23591;DHT22;11973;52.098;7.582;2023-12-07T17:21:24;0.80;99.90
23591;DHT22;11973;52.098;7.582;2023-12-07T17:23:52;0.90;99.90
23591;DHT22;11973;52.098;7.582;2023-12-07T17:26:17;0.80;99.90
23591;DHT22;11973;52.098;7.582;2023-12-07T17:28:43;0.80;99.90
23591;DHT22;11973;52.098;7.582;2023-12-07T17:31:09;0.80;99.90
23591;DHT22;11973;52.098;7.582;2023-12-07T17:33:34;0.90;99.90
23591;DHT22;11973;52.098;7.582;2023-12-07T17:36:00;0.80;99.90
23591;DHT22;11973;52.098;7.582;2023-12-07T17:38:26;0.80;99.90
23591;DHT22;11973;52.098;7.582;2023-12-07T17:40:52;0.80;99.90
23591;DHT22;11973;52.098;7.582;2023-12-07T17:43:17;0.80;99.90
23591;DHT22;11973;52.098;7.582;2023-12-07T17:45:43;0.70;99.90
23591;DHT22;11973;52.098;7.582;2023-12-07T17:48:10;0.70;99.90
23591;DHT22;11973;52.098;7.582;2023-12-07T17:50:39;0.70;99.90
23591;DHT22;11973;52.098;7.582;2023-12-07T17:53:05;0.70;99.90
23591;DHT22;11973;52.098;7.582;2023-12-07T17:55:31;0.70;99.90
23591;DHT22;11973;52.098;7.582;2023-12-07T17:57:57;0.70;99.90
23591;DHT22;11973;52.098;7.582;2023-12-07T18:00:23;0.60;99.90
23591;DHT22;11973;52.098;7.582;2023-12-07T18:02:49;0.70;99.90
23591;DHT22;11973;52.098;7.582;2023-12-07T18:05:15;0.60;99.90
23591;DHT22;11973;52.098;7.582;2023-12-07T18:07:43;0.60;99.90
23591;DHT22;11973;52.098;7.582;2023-12-07T18:10:09;0.60;99.90
23591;DHT22;11973;52.098;7.582;2023-12-07T18:12:35;0.60;99.90
23591;DHT22;11973;52.098;7.582;2023-12-07T18:15:00;0.60;99.90
23591;DHT22;11973;52.098;7.582;2023-12-07T18:17:26;0.60;99.90
23591;DHT22;11973;52.098;7.582;2023-12-07T18:19:52;0.60;99.90
23591;DHT22;11973;52.098;7.582;2023-12-07T18:22:18;0.70;99.90
23591;DHT22;11973;52.098;7.582;2023-12-07T18:24:44;0.70;99.90
23591;DHT22;11973;52.098;7.582;2023-12-07T18:27:09;0.60;99.90
23591;DHT22;11973;52.098;7.582;2023-12-07T18:29:35;0.60;99.90
23591;DHT22;11973;52.098;7.582;2023-12-07T18:32:04;0.70;99.90
23591;DHT22;11973;52.098;7.582;2023-12-07T18:34:30;0.70;99.90
23591;DHT22;11973;52.098;7.582;2023-12-07T18:36:56;0.80;99.90
23591;DHT22;11973;52.098;7.582;2023-12-07T18:39:22;0.70;99.90
23591;DHT22;11973;52.098;7.582;2023-12-07T18:41:48;0.70;99.90
23591;DHT22;11973;52.098;7.582;2023-12-07T18:44:14;0.70;99.90
23591;DHT22;11973;52.098;7.582;2023-12-07T18:46:39;0.70;99.90
23591;DHT22;11973;52.098;7.582;2023-12-07T18:49:06;0.80;99.90
23591;DHT22;11973;52.098;7.582;2023-12-07T18:51:32;0.80;99.90
23591;DHT22;11973;52.098;7.582;2023-12-07T18:53:57;0.80;99.90
23591;DHT22;11973;52.098;7.582;2023-12-07T18:56:23;0.80;99.90
23591;DHT22;11973;52.098;7.582;2023-12-07T18:58:49;0.80;99.90
23591;DHT22;11973;52.098;7.582;2023-12-07T19:01:15;0.80;99.90
23591;DHT22;11973;52.098;7.582;2023-12-07T19:03:40;0.80;99.90
23591;DHT22;11973;52.098;7.582;2023-12-07T19:06:09;0.80;99.90
23591;DHT22;11973;52.098;7.582;2023-12-07T19:08:35;0.80;99.90
23591;DHT22;11973;52.098;7.582;2023-12-07T19:11:00;0.80;99.90
23591;DHT22;11973;52.098;7.582;2023-12-07T19:13:26;0.80;99.90
23591;DHT22;11973;52.098;7.582;2023-12-07T19:15:52;0.80;99.90
23591;DHT22;11973;52.098;7.582;2023-12-07T19:18:18;0.80;99.90
23591;DHT22;11973;52.098;7.582;2023-12-07T19:20:44;0.80;99.90
23591;DHT22;11973;52.098;7.582;2023-12-07T19:23:10;0.80;99.90
23591;DHT22;11973;52.098;7.582;2023-12-07T19:25:36;0.80;99.90
23591;DHT22;11973;52.098;7.582;2023-12-07T19:28:02;0.80;99.90
23591;DHT22;11973;52.098;7.582;2023-12-07T19:30:27;0.70;99.90
23591;DHT22;11973;52.098;7.582;2023-12-07T19:32:53;0.70;99.90
23591;DHT22;11973;52.098;7.582;2023-12-07T19:35:25;0.70;99.90
23591;DHT22;11973;52.098;7.582;2023-12-07T19:37:50;0.70;99.90
23591;DHT22;11973;52.098;7.582;2023-12-07T19:40:16;0.70;99.90
23591;DHT22;11973;52.098;7.582;2023-12-07T19:42:42;0.70;99.90
23591;DHT22;11973;52.098;7.582;2023-12-07T19:45:08;0.60;99.90
23591;DHT22;11973;52.098;7.582;2023-12-07T19:47:33;0.60;99.90
23591;DHT22;11973;52.098;7.582;2023-12-07T19:49:59;0.60;99.90
23591;DHT22;11973;52.098;7.582;2023-12-07T19:52:25;0.60;99.90
23591;DHT22;11973;52.098;7.582;2023-12-07T19:54:51;0.60;99.90
23591;DHT22;11973;52.098;7.582;2023-12-07T19:57:17;0.50;99.90
23591;DHT22;11973;52.098;7.582;2023-12-07T19:59:43;0.50;99.90
23591;DHT22;11973;52.098;7.582;2023-12-07T20:02:09;0.50;99.90
23591;DHT22;11973;52.098;7.582;2023-12-07T20:04:35;0.50;99.90
23591;DHT22;11973;52.098;7.582;2023-12-07T20:07:01;0.40;99.90
23591;DHT22;11973;52.098;7.582;2023-12-07T20:09:27;0.40;99.90
23591;DHT22;11973;52.098;7.582;2023-12-07T20:11:53;0.40;99.90
23591;DHT22;11973;52.098;7.582;2023-12-07T20:14:19;0.40;99.90
23591;DHT22;11973;52.098;7.582;2023-12-07T20:16:45;0.30;99.90
23591;DHT22;11973;52.098;7.582;2023-12-07T20:19:11;0.30;99.90
23591;DHT22;11973;52.098;7.582;2023-12-07T20:21:42;0.30;99.90
23591;DHT22;11973;52.098;7.582;2023-12-07T20:24:09;0.30;99.90
23591;DHT22;11973;52.098;7.582;2023-12-07T20:26:35;0.30;99.90
23591;DHT22;11973;52.098;7.582;2023-12-07T20:29:01;0.30;99.90
23591;DHT22;11973;52.098;7.582;2023-12-07T20:31:26;0.30;99.90
23591;DHT22;11973;52.098;7.582;2023-12-07T20:33:52;0.20;99.90